Share

Gays Creek, KY (41745)

1:06 AM EDT on April 25, 2014 (GMT -0400)
KKYJACKS3 Elev 994 ft | 37.41 °N, 83.42 °W | Change Station

Current weather conditions updated 1 minute ago

Clear
Clear
50.4 °F
Feels Like 50.4 °F
N
0.0
Wind Variable Wind from North
Gusts 0.0 mph
Sunrise 6:46 AM
Sunset 8:18 PM
Moon Waning Crescent

Today is forecast to be Much Cooler than yesterday. Showers and thunderstorms.

Pressure 29.80 in
Visibility 10.0 miles
Clouds Clear
Dew Point 42 °F
Humidity 73%
Rainfall 0.00 in
Snow Depth Not available.
UV 0 out of 16
Pollen 9.90 out of 12
Air Quality Not available.
Flu Activity Sporadic
METAR KJKL 250453Z AUTO 20003KT 10SM CLR 17/M01 A2983 RMK AO2 SLP091 T01721006 402390067 $

More Conditions Fewer Conditions

Pressure 29.80 in
Visibility 10.0 miles
Clouds Clear
Dew Point 42 °F
Humidity 73%
Rainfall 0.00 in
Snow Depth Not available.
UV 0 out of 16
Pollen 9.90 out of 12
Air Quality Not available.
Flu Activity Sporadic
METAR KJKL 250453Z AUTO 20003KT 10SM CLR 17/M01 A2983 RMK AO2 SLP091 T01721006 402390067 $

More Conditions Fewer Conditions

10-Day Weather Forecast

Almanac

Astronomy

Apr. 25, 2014 Rise Set
Actual Time 6:46 AM EDT 8:18 PM EDT
Civil Twilight 6:18 AM EDT 8:45 PM EDT
Nautical Twilight 5:45 AM EDT 9:18 PM EDT
Astronomical Twilight 5:10 AM EDT 9:54 PM EDT
Moon 4:28 AM EDT 4:43 PM EDT
Length of Visible Light 14h 27m
Length of Day
13h 32m
Tomorrow will be 2m 9s longer.
Waning Crescent, 19% of the Moon is Illuminated
Today
Waning Crescent
Apr 29
New
May 6
First Quarter
May 14
Full
May 21
Last Quarter

Today's Extremes

State Highs State Lows

Community

  • Deer in evening light
    Deer in evening light
  • Critter
    Critter
  • Jone Runs Falls
    Jone Runs Falls
  • Easter in Shenandoah National Park
    Easter in Shenandoah National Park
  • Sunset at Apalachicola Bay, Florida
    Sunset at Apalachicola Bay, Florida

WunderPhotos

Upload Photos

1,704,858 photos uploaded!

WunderBlogs® & News

Nearby

Snow Depth

Station Depth Elevation
No new snow has been reported.

Coastal Water Temperatures

Place Temperature
No Stations Reporting

Earthquake Activity

City Distance Mag. Time & Date
No recent earthquake activity has been reported nearby.
Minimum magnitude displayed is 2.5.

Nearby Weather Stations

Station Location Temp. Dew Point Humidity Wind Precip. Elev Updated Type
Talbert, KY 50.4 °F 42 °F 73% North  at  0.0 mph 0.00 in / hr 994 ft 1:05 AM EDT Normal
RAWS PEABODY KY, Big Creek, KY 66 °F 34 °F 31% ESE  at  3 mph 0.00 in / hr 1464 ft 12:01 AM EDT MADIS
RAWS JACKSON CO AP KY, Jackson, KY 61 °F 31 °F 32% North  at  0 mph 0.00 in / hr 1388 ft 12:15 AM EDT MADIS

Show More Stations Show Fewer Stations

What do you think?

We're not finished. Please let us know what you like, what you don't like, and what you are still missing.